sensor_id;sensor_type;location;lat;lon;timestamp;P1;durP1;ratioP1;P2;durP2;ratioP2
80714;SDS011;70086;50.780;15.074;2023-06-14T05:50:09;10.63;;;6.10;;
80714;SDS011;70086;50.780;15.074;2023-06-14T05:50:30;14.43;;;6.57;;
80714;SDS011;70086;50.780;15.074;2023-06-14T05:50:51;12.55;;;7.38;;
80714;SDS011;70086;50.780;15.074;2023-06-14T05:51:12;14.48;;;8.40;;
80714;SDS011;70086;50.780;15.074;2023-06-14T05:51:33;13.95;;;8.45;;
80714;SDS011;70086;50.780;15.074;2023-06-14T05:51:54;14.35;;;8.57;;
80714;SDS011;70086;50.780;15.074;2023-06-14T05:52:15;12.93;;;8.30;;
80714;SDS011;70086;50.780;15.074;2023-06-14T05:52:36;12.80;;;8.30;;
80714;SDS011;70086;50.780;15.074;2023-06-14T05:52:57;13.70;;;8.50;;
80714;SDS011;70086;50.780;15.074;2023-06-14T05:53:18;12.63;;;8.00;;
80714;SDS011;70086;50.780;15.074;2023-06-14T05:53:39;12.80;;;8.45;;
80714;SDS011;70086;50.780;15.074;2023-06-14T05:54:00;13.35;;;8.50;;
80714;SDS011;70086;50.780;15.074;2023-06-14T05:54:21;14.13;;;9.05;;
80714;SDS011;70086;50.780;15.074;2023-06-14T05:54:42;13.85;;;9.55;;
80714;SDS011;70086;50.780;15.074;2023-06-14T05:55:03;12.70;;;8.98;;
80714;SDS011;70086;50.780;15.074;2023-06-14T05:55:25;12.43;;;8.77;;
80714;SDS011;70086;50.780;15.074;2023-06-14T05:55:46;14.20;;;9.07;;
80714;SDS011;70086;50.780;15.074;2023-06-14T05:56:07;14.25;;;9.18;;
80714;SDS011;70086;50.780;15.074;2023-06-14T05:56:28;14.25;;;9.38;;
80714;SDS011;70086;50.780;15.074;2023-06-14T05:56:49;13.50;;;9.27;;
80714;SDS011;70086;50.780;15.074;2023-06-14T05:57:10;14.18;;;9.05;;
80714;SDS011;70086;50.780;15.074;2023-06-14T05:57:31;14.07;;;9.10;;
80714;SDS011;70086;50.780;15.074;2023-06-14T05:57:52;14.05;;;9.20;;
80714;SDS011;70086;50.780;15.074;2023-06-14T05:58:13;15.77;;;9.93;;
80714;SDS011;70086;50.780;15.074;2023-06-14T05:58:34;14.75;;;9.18;;
80714;SDS011;70086;50.780;15.074;2023-06-14T05:58:55;13.10;;;9.30;;
80714;SDS011;70086;50.780;15.074;2023-06-14T05:59:16;13.80;;;9.57;;
80714;SDS011;70086;50.780;15.074;2023-06-14T05:59:37;13.88;;;9.73;;
80714;SDS011;70086;50.780;15.074;2023-06-14T05:59:58;13.70;;;9.73;;
80714;SDS011;70086;50.780;15.074;2023-06-14T06:00:19;13.05;;;9.73;;
80714;SDS011;70086;50.780;15.074;2023-06-14T06:00:40;13.93;;;9.32;;
80714;SDS011;70086;50.780;15.074;2023-06-14T06:01:01;13.43;;;9.60;;
80714;SDS011;70086;50.780;15.074;2023-06-14T06:01:22;14.32;;;10.00;;
80714;SDS011;70086;50.780;15.074;2023-06-14T06:01:43;13.15;;;9.45;;
80714;SDS011;70086;50.780;15.074;2023-06-14T06:02:04;12.55;;;9.50;;
80714;SDS011;70086;50.780;15.074;2023-06-14T06:02:26;11.48;;;9.15;;
80714;SDS011;70086;50.780;15.074;2023-06-14T06:02:47;13.77;;;8.97;;
80714;SDS011;70086;50.780;15.074;2023-06-14T06:03:08;13.88;;;9.07;;
80714;SDS011;70086;50.780;15.074;2023-06-14T06:03:31;12.17;;;8.83;;
80714;SDS011;70086;50.780;15.074;2023-06-14T06:03:52;11.85;;;8.52;;
80714;SDS011;70086;50.780;15.074;2023-06-14T13:33:17;5.60;;;4.75;;
80714;SDS011;70086;50.780;15.074;2023-06-14T13:33:38;5.60;;;4.97;;
80714;SDS011;70086;50.780;15.074;2023-06-14T13:33:59;5.95;;;5.35;;
80714;SDS011;70086;50.780;15.074;2023-06-14T13:34:20;6.28;;;5.40;;
80714;SDS011;70086;50.780;15.074;2023-06-14T13:34:41;5.93;;;5.05;;
80714;SDS011;70086;50.780;15.074;2023-06-14T13:35:02;5.85;;;5.25;;
80714;SDS011;70086;50.780;15.074;2023-06-14T13:35:24;6.93;;;5.32;;
80714;SDS011;70086;50.780;15.074;2023-06-14T13:35:45;7.13;;;5.13;;
80714;SDS011;70086;50.780;15.074;2023-06-14T13:36:06;6.77;;;5.33;;
80714;SDS011;70086;50.780;15.074;2023-06-14T13:36:27;7.32;;;5.50;;
80714;SDS011;70086;50.780;15.074;2023-06-14T13:36:48;7.18;;;5.57;;
80714;SDS011;70086;50.780;15.074;2023-06-14T13:37:10;6.75;;;5.03;;
80714;SDS011;70086;50.780;15.074;2023-06-14T13:37:30;6.93;;;5.30;;
80714;SDS011;70086;50.780;15.074;2023-06-14T13:37:52;6.55;;;5.30;;
80714;SDS011;70086;50.780;15.074;2023-06-14T13:38:13;5.90;;;5.20;;
80714;SDS011;70086;50.780;15.074;2023-06-14T13:38:35;5.65;;;5.05;;
80714;SDS011;70086;50.780;15.074;2023-06-14T13:38:55;6.25;;;5.40;;
80714;SDS011;70086;50.780;15.074;2023-06-14T13:39:18;6.05;;;5.45;;
80714;SDS011;70086;50.780;15.074;2023-06-14T13:39:39;6.13;;;5.53;;
80714;SDS011;70086;50.780;15.074;2023-06-14T13:40:00;5.97;;;5.38;;
80714;SDS011;70086;50.780;15.074;2023-06-14T13:40:22;5.75;;;5.18;;
80714;SDS011;70086;50.780;15.074;2023-06-14T13:40:42;6.25;;;5.25;;
80714;SDS011;70086;50.780;15.074;2023-06-14T13:41:04;6.03;;;5.32;;
80714;SDS011;70086;50.780;15.074;2023-06-14T13:41:25;6.18;;;5.05;;
80714;SDS011;70086;50.780;15.074;2023-06-14T13:41:52;5.82;;;4.80;;
80714;SDS011;70086;50.780;15.074;2023-06-14T13:42:13;5.85;;;5.25;;
80714;SDS011;70086;50.780;15.074;2023-06-14T13:42:34;6.18;;;5.35;;
80714;SDS011;70086;50.780;15.074;2023-06-14T13:42:55;6.05;;;5.45;;
80714;SDS011;70086;50.780;15.074;2023-06-14T13:43:16;6.20;;;5.60;;
80714;SDS011;70086;50.780;15.074;2023-06-14T13:43:37;7.28;;;5.78;;
80714;SDS011;70086;50.780;15.074;2023-06-14T13:43:58;6.07;;;5.45;;
80714;SDS011;70086;50.780;15.074;2023-06-14T13:44:19;6.38;;;5.38;;
80714;SDS011;70086;50.780;15.074;2023-06-14T13:44:41;5.88;;;5.25;;
80714;SDS011;70086;50.780;15.074;2023-06-14T13:45:02;5.90;;;5.30;;
80714;SDS011;70086;50.780;15.074;2023-06-14T13:45:23;6.47;;;5.20;;
80714;SDS011;70086;50.780;15.074;2023-06-14T13:45:44;5.80;;;5.20;;
80714;SDS011;70086;50.780;15.074;2023-06-14T13:46:05;6.03;;;5.10;;
80714;SDS011;70086;50.780;15.074;2023-06-14T13:46:26;6.00;;;5.30;;
80714;SDS011;70086;50.780;15.074;2023-06-14T13:46:47;6.30;;;5.40;;
80714;SDS011;70086;50.780;15.074;2023-06-14T13:47:08;6.45;;;5.38;;
80714;SDS011;70086;50.780;15.074;2023-06-14T13:47:29;6.43;;;5.72;;
80714;SDS011;70086;50.780;15.074;2023-06-14T13:47:51;5.88;;;5.28;;
80714;SDS011;70086;50.780;15.074;2023-06-14T13:48:12;6.05;;;5.28;;
80714;SDS011;70086;50.780;15.074;2023-06-14T13:48:33;6.07;;;5.35;;
80714;SDS011;70086;50.780;15.074;2023-06-14T13:48:54;6.20;;;5.38;;
80714;SDS011;70086;50.780;15.074;2023-06-14T13:49:15;6.47;;;5.60;;
80714;SDS011;70086;50.780;15.074;2023-06-14T13:49:36;6.95;;;5.70;;
80714;SDS011;70086;50.780;15.074;2023-06-14T13:49:57;6.32;;;5.05;;
80714;SDS011;70086;50.780;15.074;2023-06-14T13:50:18;6.47;;;5.28;;
80714;SDS011;70086;50.780;15.074;2023-06-14T13:50:40;6.82;;;5.60;;
80714;SDS011;70086;50.780;15.074;2023-06-14T13:51:01;5.90;;;5.30;;
80714;SDS011;70086;50.780;15.074;2023-06-14T13:51:24;6.00;;;5.40;;
80714;SDS011;70086;50.780;15.074;2023-06-14T13:51:46;5.95;;;5.35;;
80714;SDS011;70086;50.780;15.074;2023-06-14T13:52:07;5.95;;;5.18;;
80714;SDS011;70086;50.780;15.074;2023-06-14T13:52:28;6.20;;;5.18;;
80714;SDS011;70086;50.780;15.074;2023-06-14T13:52:49;6.13;;;5.43;;
80714;SDS011;70086;50.780;15.074;2023-06-14T13:53:10;6.18;;;5.57;;
80714;SDS011;70086;50.780;15.074;2023-06-14T13:53:31;6.63;;;5.82;;
80714;SDS011;70086;50.780;15.074;2023-06-14T13:53:52;6.45;;;5.63;;
80714;SDS011;70086;50.780;15.074;2023-06-14T13:54:14;5.85;;;5.25;;
80714;SDS011;70086;50.780;15.074;2023-06-14T13:54:35;6.35;;;5.40;;
80714;SDS011;70086;50.780;15.074;2023-06-14T13:54:56;6.97;;;5.50;;
80714;SDS011;70086;50.780;15.074;2023-06-14T13:55:17;6.47;;;5.50;;
80714;SDS011;70086;50.780;15.074;2023-06-14T13:55:38;6.47;;;5.63;;
80714;SDS011;70086;50.780;15.074;2023-06-14T13:55:59;6.10;;;5.47;;
80714;SDS011;70086;50.780;15.074;2023-06-14T13:56:20;6.00;;;5.28;;
80714;SDS011;70086;50.780;15.074;2023-06-14T13:56:44;6.20;;;5.13;;
80714;SDS011;70086;50.780;15.074;2023-06-14T13:57:05;7.22;;;5.53;;
80714;SDS011;70086;50.780;15.074;2023-06-14T13:57:26;6.28;;;5.32;;
80714;SDS011;70086;50.780;15.074;2023-06-14T13:57:47;6.20;;;5.30;;
80714;SDS011;70086;50.780;15.074;2023-06-14T13:58:08;6.10;;;5.50;;
80714;SDS011;70086;50.780;15.074;2023-06-14T13:58:29;6.03;;;5.43;;
80714;SDS011;70086;50.780;15.074;2023-06-14T13:58:50;6.27;;;5.67;;
80714;SDS011;70086;50.780;15.074;2023-06-14T13:59:12;6.28;;;5.68;;
80714;SDS011;70086;50.780;15.074;2023-06-14T13:59:33;6.22;;;5.45;;
80714;SDS011;70086;50.780;15.074;2023-06-14T13:59:54;6.10;;;5.40;;
80714;SDS011;70086;50.780;15.074;2023-06-14T14:00:20;6.47;;;5.78;;
80714;SDS011;70086;50.780;15.074;2023-06-14T14:00:42;6.05;;;5.45;;
80714;SDS011;70086;50.780;15.074;2023-06-14T14:01:02;6.27;;;5.50;;
80714;SDS011;70086;50.780;15.074;2023-06-14T14:01:23;6.28;;;5.50;;
80714;SDS011;70086;50.780;15.074;2023-06-14T14:01:45;6.30;;;5.43;;
80714;SDS011;70086;50.780;15.074;2023-06-14T14:02:07;6.45;;;5.65;;
80714;SDS011;70086;50.780;15.074;2023-06-14T14:02:28;6.60;;;5.53;;
80714;SDS011;70086;50.780;15.074;2023-06-14T14:02:49;6.63;;;5.50;;
80714;SDS011;70086;50.780;15.074;2023-06-14T14:03:10;6.22;;;5.32;;
80714;SDS011;70086;50.780;15.074;2023-06-14T14:03:31;6.53;;;5.63;;
80714;SDS011;70086;50.780;15.074;2023-06-14T14:03:53;7.20;;;5.80;;
80714;SDS011;70086;50.780;15.074;2023-06-14T14:04:13;7.50;;;5.65;;
80714;SDS011;70086;50.780;15.074;2023-06-14T14:04:36;6.40;;;5.30;;
80714;SDS011;70086;50.780;15.074;2023-06-14T14:04:57;6.28;;;5.45;;
80714;SDS011;70086;50.780;15.074;2023-06-14T14:05:18;6.35;;;5.63;;
80714;SDS011;70086;50.780;15.074;2023-06-14T14:05:40;7.05;;;5.63;;
80714;SDS011;70086;50.780;15.074;2023-06-14T14:06:01;8.20;;;5.97;;
80714;SDS011;70086;50.780;15.074;2023-06-14T14:06:22;7.18;;;5.90;;
80714;SDS011;70086;50.780;15.074;2023-06-14T14:06:43;6.85;;;5.35;;
80714;SDS011;70086;50.780;15.074;2023-06-14T14:07:05;7.75;;;5.63;;
80714;SDS011;70086;50.780;15.074;2023-06-14T14:07:27;7.55;;;6.18;;
80714;SDS011;70086;50.780;15.074;2023-06-14T14:07:49;6.60;;;5.75;;
80714;SDS011;70086;50.780;15.074;2023-06-14T14:08:12;6.18;;;5.57;;
80714;SDS011;70086;50.780;15.074;2023-06-14T14:08:33;6.57;;;5.38;;
80714;SDS011;70086;50.780;15.074;2023-06-14T14:08:54;6.50;;;5.30;;
80714;SDS011;70086;50.780;15.074;2023-06-14T14:09:15;6.28;;;5.60;;
80714;SDS011;70086;50.780;15.074;2023-06-14T14:09:36;6.28;;;5.55;;
80714;SDS011;70086;50.780;15.074;2023-06-14T14:09:57;6.25;;;5.63;;
80714;SDS011;70086;50.780;15.074;2023-06-14T14:10:18;6.93;;;5.80;;
80714;SDS011;70086;50.780;15.074;2023-06-14T14:10:40;6.88;;;5.90;;
80714;SDS011;70086;50.780;15.074;2023-06-14T14:11:01;6.18;;;5.57;;
80714;SDS011;70086;50.780;15.074;2023-06-14T14:11:23;7.40;;;5.53;;
80714;SDS011;70086;50.780;15.074;2023-06-14T14:11:44;7.45;;;6.00;;
80714;SDS011;70086;50.780;15.074;2023-06-14T14:12:05;6.95;;;6.25;;
80714;SDS011;70086;50.780;15.074;2023-06-14T14:12:26;6.30;;;5.70;;
80714;SDS011;70086;50.780;15.074;2023-06-14T14:12:48;6.43;;;5.47;;
80714;SDS011;70086;50.780;15.074;2023-06-14T14:13:10;7.18;;;5.25;;
80714;SDS011;70086;50.780;15.074;2023-06-14T14:13:32;6.75;;;5.65;;
80714;SDS011;70086;50.780;15.074;2023-06-14T14:13:53;6.82;;;6.13;;
80714;SDS011;70086;50.780;15.074;2023-06-14T14:14:15;7.07;;;5.90;;
80714;SDS011;70086;50.780;15.074;2023-06-14T14:14:35;7.57;;;5.80;;
80714;SDS011;70086;50.780;15.074;2023-06-14T14:14:56;7.53;;;5.43;;
80714;SDS011;70086;50.780;15.074;2023-06-14T14:15:18;6.45;;;5.47;;
80714;SDS011;70086;50.780;15.074;2023-06-14T14:15:39;6.80;;;5.60;;
80714;SDS011;70086;50.780;15.074;2023-06-14T14:16:00;7.43;;;5.53;;
80714;SDS011;70086;50.780;15.074;2023-06-14T14:16:21;7.10;;;5.70;;
80714;SDS011;70086;50.780;15.074;2023-06-14T14:16:43;7.15;;;6.00;;
80714;SDS011;70086;50.780;15.074;2023-06-14T14:17:04;7.38;;;5.70;;
80714;SDS011;70086;50.780;15.074;2023-06-14T14:17:25;6.55;;;5.38;;
80714;SDS011;70086;50.780;15.074;2023-06-14T14:17:46;6.45;;;5.60;;
80714;SDS011;70086;50.780;15.074;2023-06-14T14:18:08;6.57;;;5.60;;
80714;SDS011;70086;50.780;15.074;2023-06-14T14:18:29;6.83;;;6.10;;
80714;SDS011;70086;50.780;15.074;2023-06-14T14:18:50;7.07;;;5.90;;
80714;SDS011;70086;50.780;15.074;2023-06-14T14:19:11;6.88;;;5.55;;
80714;SDS011;70086;50.780;15.074;2023-06-14T14:19:32;7.40;;;5.80;;
80714;SDS011;70086;50.780;15.074;2023-06-14T14:19:53;6.97;;;6.10;;
80714;SDS011;70086;50.780;15.074;2023-06-14T14:20:15;6.72;;;5.97;;
80714;SDS011;70086;50.780;15.074;2023-06-14T14:20:36;7.38;;;6.00;;
80714;SDS011;70086;50.780;15.074;2023-06-14T14:20:58;7.38;;;5.70;;
80714;SDS011;70086;50.780;15.074;2023-06-14T14:21:20;7.10;;;5.85;;
80714;SDS011;70086;50.780;15.074;2023-06-14T14:21:41;6.73;;;5.27;;
80714;SDS011;70086;50.780;15.074;2023-06-14T14:22:02;8.20;;;5.57;;
80714;SDS011;70086;50.780;15.074;2023-06-14T14:22:23;6.28;;;5.57;;
80714;SDS011;70086;50.780;15.074;2023-06-14T14:22:44;6.47;;;5.50;;
80714;SDS011;70086;50.780;15.074;2023-06-14T14:23:05;6.40;;;5.38;;
80714;SDS011;70086;50.780;15.074;2023-06-14T14:23:26;9.35;;;6.07;;
80714;SDS011;70086;50.780;15.074;2023-06-14T14:23:47;9.25;;;5.53;;
80714;SDS011;70086;50.780;15.074;2023-06-14T14:24:09;6.88;;;5.75;;
80714;SDS011;70086;50.780;15.074;2023-06-14T14:24:30;7.18;;;5.60;;
80714;SDS011;70086;50.780;15.074;2023-06-14T14:24:51;6.80;;;5.90;;
80714;SDS011;70086;50.780;15.074;2023-06-14T14:25:12;7.30;;;6.18;;
80714;SDS011;70086;50.780;15.074;2023-06-14T14:25:33;6.80;;;5.97;;
80714;SDS011;70086;50.780;15.074;2023-06-14T14:25:54;6.25;;;5.38;;
80714;SDS011;70086;50.780;15.074;2023-06-14T14:26:15;6.13;;;5.53;;
80714;SDS011;70086;50.780;15.074;2023-06-14T14:26:36;6.70;;;5.70;;
80714;SDS011;70086;50.780;15.074;2023-06-14T14:26:57;7.10;;;5.70;;
80714;SDS011;70086;50.780;15.074;2023-06-14T14:27:20;6.53;;;5.57;;
80714;SDS011;70086;50.780;15.074;2023-06-14T14:27:41;6.22;;;5.47;;
80714;SDS011;70086;50.780;15.074;2023-06-14T14:28:02;6.40;;;5.43;;
80714;SDS011;70086;50.780;15.074;2023-06-14T14:28:23;6.22;;;5.35;;
80714;SDS011;70086;50.780;15.074;2023-06-14T14:28:44;7.18;;;5.65;;
80714;SDS011;70086;50.780;15.074;2023-06-14T14:29:05;7.50;;;5.60;;
80714;SDS011;70086;50.780;15.074;2023-06-14T14:29:26;6.63;;;5.50;;
80714;SDS011;70086;50.780;15.074;2023-06-14T14:29:49;6.20;;;5.28;;
80714;SDS011;70086;50.780;15.074;2023-06-14T14:30:10;6.78;;;5.47;;
80714;SDS011;70086;50.780;15.074;2023-06-14T14:30:31;7.53;;;5.45;;
80714;SDS011;70086;50.780;15.074;2023-06-14T14:30:52;6.57;;;5.40;;
80714;SDS011;70086;50.780;15.074;2023-06-14T14:31:14;6.22;;;5.55;;
80714;SDS011;70086;50.780;15.074;2023-06-14T14:31:35;5.80;;;5.13;;
80714;SDS011;70086;50.780;15.074;2023-06-14T14:31:56;6.00;;;5.35;;
80714;SDS011;70086;50.780;15.074;2023-06-14T14:32:17;5.80;;;5.20;;
80714;SDS011;70086;50.780;15.074;2023-06-14T14:32:38;6.40;;;5.30;;
80714;SDS011;70086;50.780;15.074;2023-06-14T14:32:58;6.78;;;5.55;;
80714;SDS011;70086;50.780;15.074;2023-06-14T14:33:19;6.20;;;5.10;;
80714;SDS011;70086;50.780;15.074;2023-06-14T14:33:40;5.88;;;5.20;;
80714;SDS011;70086;50.780;15.074;2023-06-14T14:34:01;6.20;;;5.22;;
80714;SDS011;70086;50.780;15.074;2023-06-14T14:34:23;5.70;;;5.10;;
80714;SDS011;70086;50.780;15.074;2023-06-14T14:34:44;5.82;;;5.13;;
80714;SDS011;70086;50.780;15.074;2023-06-14T14:35:06;5.88;;;5.28;;
80714;SDS011;70086;50.780;15.074;2023-06-14T14:35:27;6.30;;;5.25;;
80714;SDS011;70086;50.780;15.074;2023-06-14T14:35:50;6.40;;;5.35;;
80714;SDS011;70086;50.780;15.074;2023-06-14T14:36:11;6.70;;;5.25;;
80714;SDS011;70086;50.780;15.074;2023-06-14T14:36:33;6.90;;;5.32;;
80714;SDS011;70086;50.780;15.074;2023-06-14T14:36:57;7.32;;;5.50;;
80714;SDS011;70086;50.780;15.074;2023-06-14T14:37:18;7.13;;;5.57;;
80714;SDS011;70086;50.780;15.074;2023-06-14T14:37:39;6.57;;;5.38;;
80714;SDS011;70086;50.780;15.074;2023-06-14T14:38:00;6.57;;;5.35;;
80714;SDS011;70086;50.780;15.074;2023-06-14T14:38:23;6.50;;;5.50;;
80714;SDS011;70086;50.780;15.074;2023-06-14T14:38:44;7.30;;;5.68;;
80714;SDS011;70086;50.780;15.074;2023-06-14T14:39:05;7.63;;;5.72;;
80714;SDS011;70086;50.780;15.074;2023-06-14T14:39:27;6.57;;;5.47;;
80714;SDS011;70086;50.780;15.074;2023-06-14T14:39:48;5.95;;;5.20;;
80714;SDS011;70086;50.780;15.074;2023-06-14T14:40:09;6.35;;;5.15;;
80714;SDS011;70086;50.780;15.074;2023-06-14T14:40:30;5.68;;;5.07;;
80714;SDS011;70086;50.780;15.074;2023-06-14T14:40:51;6.20;;;5.45;;
80714;SDS011;70086;50.780;15.074;2023-06-14T14:41:12;6.20;;;5.10;;
80714;SDS011;70086;50.780;15.074;2023-06-14T14:41:33;6.03;;;5.33;;
80714;SDS011;70086;50.780;15.074;2023-06-14T14:41:54;8.35;;;5.60;;
80714;SDS011;70086;50.780;15.074;2023-06-14T14:42:15;8.52;;;5.47;;
80714;SDS011;70086;50.780;15.074;2023-06-14T14:42:36;7.43;;;5.07;;
80714;SDS011;70086;50.780;15.074;2023-06-14T14:42:57;6.47;;;5.33;;
80714;SDS011;70086;50.780;15.074;2023-06-14T14:43:18;6.20;;;5.30;;
80714;SDS011;70086;50.780;15.074;2023-06-14T14:43:39;5.80;;;5.20;;
80714;SDS011;70086;50.780;15.074;2023-06-14T14:44:00;5.85;;;5.05;;
80714;SDS011;70086;50.780;15.074;2023-06-14T14:44:22;5.90;;;5.30;;
80714;SDS011;70086;50.780;15.074;2023-06-14T14:44:43;6.43;;;5.22;;
80714;SDS011;70086;50.780;15.074;2023-06-14T14:45:04;7.03;;;5.25;;
80714;SDS011;70086;50.780;15.074;2023-06-14T14:45:25;6.70;;;5.15;;
80714;SDS011;70086;50.780;15.074;2023-06-14T14:45:46;6.82;;;5.55;;
80714;SDS011;70086;50.780;15.074;2023-06-14T14:46:07;6.38;;;5.20;;
80714;SDS011;70086;50.780;15.074;2023-06-14T14:46:28;6.20;;;5.00;;
80714;SDS011;70086;50.780;15.074;2023-06-14T14:46:49;5.95;;;5.10;;
80714;SDS011;70086;50.780;15.074;2023-06-14T14:47:10;6.10;;;5.38;;
80714;SDS011;70086;50.780;15.074;2023-06-14T14:47:31;6.30;;;5.30;;
80714;SDS011;70086;50.780;15.074;2023-06-14T14:47:52;6.28;;;5.28;;
80714;SDS011;70086;50.780;15.074;2023-06-14T14:48:13;5.97;;;5.15;;
80714;SDS011;70086;50.780;15.074;2023-06-14T14:48:34;7.35;;;5.05;;
80714;SDS011;70086;50.780;15.074;2023-06-14T14:48:55;6.30;;;5.25;;
80714;SDS011;70086;50.780;15.074;2023-06-14T14:49:16;6.82;;;5.47;;
80714;SDS011;70086;50.780;15.074;2023-06-14T14:49:37;6.35;;;5.53;;
80714;SDS011;70086;50.780;15.074;2023-06-14T14:49:58;6.85;;;5.35;;
80714;SDS011;70086;50.780;15.074;2023-06-14T14:50:19;6.35;;;5.45;;
80714;SDS011;70086;50.780;15.074;2023-06-14T14:50:40;6.68;;;5.25;;
80714;SDS011;70086;50.780;15.074;2023-06-14T14:51:01;8.50;;;5.30;;
80714;SDS011;70086;50.780;15.074;2023-06-14T14:51:23;7.63;;;5.43;;
80714;SDS011;70086;50.780;15.074;2023-06-14T14:51:44;6.13;;;5.30;;
80714;SDS011;70086;50.780;15.074;2023-06-14T14:52:05;5.82;;;5.18;;
80714;SDS011;70086;50.780;15.074;2023-06-14T14:52:26;6.53;;;5.32;;
80714;SDS011;70086;50.780;15.074;2023-06-14T14:52:47;8.10;;;5.32;;
80714;SDS011;70086;50.780;15.074;2023-06-14T14:53:08;7.20;;;5.43;;
80714;SDS011;70086;50.780;15.074;2023-06-14T14:53:29;5.85;;;5.25;;
80714;SDS011;70086;50.780;15.074;2023-06-14T14:53:50;6.00;;;4.97;;
80714;SDS011;70086;50.780;15.074;2023-06-14T14:54:11;8.57;;;5.28;;
80714;SDS011;70086;50.780;15.074;2023-06-14T14:54:32;7.55;;;5.20;;
80714;SDS011;70086;50.780;15.074;2023-06-14T14:54:53;6.20;;;5.40;;
80714;SDS011;70086;50.780;15.074;2023-06-14T14:55:14;5.82;;;4.72;;
80714;SDS011;70086;50.780;15.074;2023-06-14T14:55:35;6.93;;;5.28;;
80714;SDS011;70086;50.780;15.074;2023-06-14T14:55:57;6.75;;;4.93;;
80714;SDS011;70086;50.780;15.074;2023-06-14T14:56:18;6.83;;;5.30;;
80714;SDS011;70086;50.780;15.074;2023-06-14T14:56:39;5.85;;;5.07;;
80714;SDS011;70086;50.780;15.074;2023-06-14T14:57:00;6.15;;;5.10;;
80714;SDS011;70086;50.780;15.074;2023-06-14T14:57:21;6.55;;;5.40;;
80714;SDS011;70086;50.780;15.074;2023-06-14T14:57:42;6.15;;;5.45;;
80714;SDS011;70086;50.780;15.074;2023-06-14T14:58:03;6.07;;;5.18;;
80714;SDS011;70086;50.780;15.074;2023-06-14T14:58:26;6.93;;;5.00;;
80714;SDS011;70086;50.780;15.074;2023-06-14T14:58:47;6.75;;;5.25;;
80714;SDS011;70086;50.780;15.074;2023-06-14T14:59:09;6.43;;;5.10;;
80714;SDS011;70086;50.780;15.074;2023-06-14T14:59:30;6.13;;;5.20;;
80714;SDS011;70086;50.780;15.074;2023-06-14T14:59:51;6.65;;;5.32;;
80714;SDS011;70086;50.780;15.074;2023-06-14T15:00:12;6.60;;;5.20;;
80714;SDS011;70086;50.780;15.074;2023-06-14T15:00:34;6.07;;;4.97;;
80714;SDS011;70086;50.780;15.074;2023-06-14T15:00:55;6.15;;;4.95;;
80714;SDS011;70086;50.780;15.074;2023-06-14T15:01:16;6.20;;;4.90;;
80714;SDS011;70086;50.780;15.074;2023-06-14T15:01:38;6.95;;;5.20;;
80714;SDS011;70086;50.780;15.074;2023-06-14T15:01:59;6.53;;;5.00;;
80714;SDS011;70086;50.780;15.074;2023-06-14T15:02:20;6.40;;;5.10;;
80714;SDS011;70086;50.780;15.074;2023-06-14T15:02:42;7.30;;;4.80;;
80714;SDS011;70086;50.780;15.074;2023-06-14T15:03:03;6.20;;;4.97;;
80714;SDS011;70086;50.780;15.074;2023-06-14T15:03:24;6.72;;;5.03;;
80714;SDS011;70086;50.780;15.074;2023-06-14T15:03:45;8.23;;;5.13;;
80714;SDS011;70086;50.780;15.074;2023-06-14T15:04:06;6.97;;;5.05;;
80714;SDS011;70086;50.780;15.074;2023-06-14T15:04:27;6.13;;;4.95;;
80714;SDS011;70086;50.780;15.074;2023-06-14T15:04:49;5.78;;;4.70;;
80714;SDS011;70086;50.780;15.074;2023-06-14T15:05:12;6.60;;;4.55;;
80714;SDS011;70086;50.780;15.074;2023-06-14T15:05:33;6.20;;;4.90;;
80714;SDS011;70086;50.780;15.074;2023-06-14T15:05:54;5.72;;;4.80;;
80714;SDS011;70086;50.780;15.074;2023-06-14T15:06:15;5.70;;;4.80;;
80714;SDS011;70086;50.780;15.074;2023-06-14T15:06:37;6.13;;;4.90;;
80714;SDS011;70086;50.780;15.074;2023-06-14T15:07:02;6.70;;;5.00;;
80714;SDS011;70086;50.780;15.074;2023-06-14T15:07:26;7.00;;;4.78;;
80714;SDS011;70086;50.780;15.074;2023-06-14T15:08:01;6.00;;;4.78;;
80714;SDS011;70086;50.780;15.074;2023-06-14T15:08:22;7.53;;;4.97;;
80714;SDS011;70086;50.780;15.074;2023-06-14T15:08:43;7.00;;;5.18;;
80714;SDS011;70086;50.780;15.074;2023-06-14T15:09:05;6.70;;;4.72;;
80714;SDS011;70086;50.780;15.074;2023-06-14T15:09:26;5.40;;;4.38;;
80714;SDS011;70086;50.780;15.074;2023-06-14T15:09:47;5.07;;;4.28;;
80714;SDS011;70086;50.780;15.074;2023-06-14T15:10:10;6.20;;;4.80;;
80714;SDS011;70086;50.780;15.074;2023-06-14T15:10:31;6.38;;;4.82;;
80714;SDS011;70086;50.780;15.074;2023-06-14T15:10:52;5.75;;;4.82;;
80714;SDS011;70086;50.780;15.074;2023-06-14T15:11:13;5.65;;;4.57;;
80714;SDS011;70086;50.780;15.074;2023-06-14T15:11:34;6.20;;;4.70;;
80714;SDS011;70086;50.780;15.074;2023-06-14T15:11:55;6.20;;;4.72;;
80714;SDS011;70086;50.780;15.074;2023-06-14T15:12:16;6.15;;;4.63;;
80714;SDS011;70086;50.780;15.074;2023-06-14T15:12:37;5.72;;;4.50;;
80714;SDS011;70086;50.780;15.074;2023-06-14T15:12:58;5.55;;;4.70;;
80714;SDS011;70086;50.780;15.074;2023-06-14T15:13:19;5.18;;;4.22;;
80714;SDS011;70086;50.780;15.074;2023-06-14T15:13:40;5.03;;;4.30;;
80714;SDS011;70086;50.780;15.074;2023-06-14T15:14:01;6.10;;;4.90;;
80714;SDS011;70086;50.780;15.074;2023-06-14T15:14:22;5.97;;;4.63;;
80714;SDS011;70086;50.780;15.074;2023-06-14T15:14:43;5.60;;;4.45;;
80714;SDS011;70086;50.780;15.074;2023-06-14T15:15:04;5.88;;;4.50;;
80714;SDS011;70086;50.780;15.074;2023-06-14T15:15:25;5.82;;;4.55;;
80714;SDS011;70086;50.780;15.074;2023-06-14T15:15:46;5.85;;;4.55;;
80714;SDS011;70086;50.780;15.074;2023-06-14T15:16:07;6.00;;;4.50;;
80714;SDS011;70086;50.780;15.074;2023-06-14T15:16:28;5.50;;;4.65;;
80714;SDS011;70086;50.780;15.074;2023-06-14T15:16:49;5.35;;;4.63;;
80714;SDS011;70086;50.780;15.074;2023-06-14T15:17:10;5.43;;;4.72;;
80714;SDS011;70086;50.780;15.074;2023-06-14T15:17:31;5.22;;;4.20;;
80714;SDS011;70086;50.780;15.074;2023-06-14T15:17:52;6.03;;;3.92;;
80714;SDS011;70086;50.780;15.074;2023-06-14T15:18:13;5.75;;;4.35;;
80714;SDS011;70086;50.780;15.074;2023-06-14T15:18:35;6.30;;;4.80;;
80714;SDS011;70086;50.780;15.074;2023-06-14T15:18:56;6.93;;;4.45;;
80714;SDS011;70086;50.780;15.074;2023-06-14T15:19:17;6.60;;;4.30;;
80714;SDS011;70086;50.780;15.074;2023-06-14T15:19:38;5.30;;;4.32;;
80714;SDS011;70086;50.780;15.074;2023-06-14T15:19:59;6.13;;;4.10;;
80714;SDS011;70086;50.780;15.074;2023-06-14T15:20:20;6.33;;;4.40;;
80714;SDS011;70086;50.780;15.074;2023-06-14T15:20:41;5.82;;;4.50;;
80714;SDS011;70086;50.780;15.074;2023-06-14T15:21:03;6.65;;;4.80;;
80714;SDS011;70086;50.780;15.074;2023-06-14T15:21:24;7.03;;;4.90;;
80714;SDS011;70086;50.780;15.074;2023-06-14T15:21:45;6.03;;;4.50;;
80714;SDS011;70086;50.780;15.074;2023-06-14T15:22:06;5.80;;;4.38;;
80714;SDS011;70086;50.780;15.074;2023-06-14T15:22:27;5.68;;;4.38;;
80714;SDS011;70086;50.780;15.074;2023-06-14T15:22:48;5.70;;;4.45;;
80714;SDS011;70086;50.780;15.074;2023-06-14T15:23:09;5.50;;;4.60;;
80714;SDS011;70086;50.780;15.074;2023-06-14T15:23:30;5.38;;;4.45;;
80714;SDS011;70086;50.780;15.074;2023-06-14T15:23:51;5.60;;;4.45;;
80714;SDS011;70086;50.780;15.074;2023-06-14T15:24:13;5.60;;;4.30;;
80714;SDS011;70086;50.780;15.074;2023-06-14T15:24:34;5.45;;;4.25;;
80714;SDS011;70086;50.780;15.074;2023-06-14T15:24:55;6.20;;;4.50;;
80714;SDS011;70086;50.780;15.074;2023-06-14T15:25:16;5.75;;;4.60;;